SCX3044 KBNA-KLAL
Flight info
| Callsign | SCX3044 |
|---|---|
| Flight time | 1h 32m |
| Altitude | 37000 |
| Route | TAZMO3 BURME ODF DBN AYS KYYUU LUBBR3 |
| Aircraft | B738/M-SDE2E3FGHIRWXY/LB1 |
Departure
| Time | 2026-04-23 23:16 |
|---|---|
| Airport | Nashville International Airport (KBNA) |
Arrival
| Time | 2026-04-24 00:48 |
|---|---|
| Airport | Lakeland Linder International Airport (KLAL) |
| Time | Latitude | Longitude | Altitude | Speed | Heading |
|---|---|---|---|---|---|
| 2026-04-23 22:58 | 36.12128 | -86.68871 | 574 ft | 0 kts | 287° |
| 2026-04-23 23:07 | 36.12126 | -86.68862 | 574 ft | 2 kts | 285° |
| 2026-04-23 23:07 | 36.12121 | -86.68842 | 575 ft | 2 kts | 290° |
| 2026-04-23 23:08 | 36.12115 | -86.68824 | 574 ft | 2 kts | 295° |
| 2026-04-23 23:08 | 36.12106 | -86.68806 | 574 ft | 2 kts | 320° |
| 2026-04-23 23:08 | 36.12092 | -86.68801 | 576 ft | 2 kts | 18° |
| 2026-04-23 23:08 | 36.12087 | -86.68803 | 577 ft | 0 kts | 20° |
| 2026-04-23 23:10 | 36.12101 | -86.68798 | 580 ft | 6 kts | 14° |
| 2026-04-23 23:10 | 36.12170 | -86.68778 | 574 ft | 14 kts | 11° |
| 2026-04-23 23:11 | 36.12228 | -86.68722 | 575 ft | 10 kts | 80° |
| 2026-04-23 23:11 | 36.12240 | -86.68636 | 575 ft | 12 kts | 49° |
| 2026-04-23 23:11 | 36.12334 | -86.68585 | 576 ft | 18 kts | 16° |
| 2026-04-23 23:11 | 36.12482 | -86.68527 | 576 ft | 25 kts | 17° |
| 2026-04-23 23:12 | 36.12650 | -86.68463 | 574 ft | 24 kts | 17° |
| 2026-04-23 23:12 | 36.12805 | -86.68400 | 577 ft | 23 kts | 18° |
| 2026-04-23 23:12 | 36.12956 | -86.68342 | 574 ft | 25 kts | 17° |
| 2026-04-23 23:12 | 36.13145 | -86.68268 | 575 ft | 30 kts | 18° |
| 2026-04-23 23:13 | 36.13347 | -86.68188 | 574 ft | 30 kts | 18° |
| 2026-04-23 23:13 | 36.13544 | -86.68111 | 574 ft | 29 kts | 18° |
| 2026-04-23 23:13 | 36.13723 | -86.68035 | 574 ft | 20 kts | 13° |
| 2026-04-23 23:13 | 36.13778 | -86.68002 | 576 ft | 0 kts | 31° |
| 2026-04-23 23:14 | 36.13779 | -86.68001 | 576 ft | 1 kts | 32° |
| 2026-04-23 23:15 | 36.13798 | -86.67960 | 574 ft | 10 kts | 81° |
| 2026-04-23 23:15 | 36.13750 | -86.67881 | 579 ft | 15 kts | 178° |
| 2026-04-23 23:15 | 36.13484 | -86.67976 | 578 ft | 80 kts | 198° |
| 2026-04-23 23:15 | 36.12697 | -86.68288 | 600 ft | 152 kts | 199° |
| 2026-04-23 23:16 | 36.11637 | -86.68738 | 1371 ft | 158 kts | 201° |
| 2026-04-23 23:16 | 36.10639 | -86.69198 | 2495 ft | 151 kts | 205° |
| 2026-04-23 23:16 | 36.09619 | -86.69712 | 3163 ft | 168 kts | 205° |
| 2026-04-23 23:16 | 36.08476 | -86.70283 | 3733 ft | 189 kts | 205° |
| 2026-04-23 23:17 | 36.07177 | -86.70944 | 4108 ft | 208 kts | 204° |
| 2026-04-23 23:17 | 36.05854 | -86.71509 | 4853 ft | 208 kts | 194° |
| 2026-04-23 23:17 | 36.04395 | -86.71467 | 5476 ft | 212 kts | 172° |
| 2026-04-23 23:17 | 36.02888 | -86.70922 | 5757 ft | 233 kts | 163° |
| 2026-04-23 23:18 | 36.01400 | -86.70095 | 6475 ft | 233 kts | 155° |
| 2026-04-23 23:18 | 36.00001 | -86.69086 | 7151 ft | 238 kts | 153° |
| 2026-04-23 23:18 | 35.98538 | -86.67979 | 7499 ft | 263 kts | 143° |
| 2026-04-23 23:18 | 35.97506 | -86.66012 | 7971 ft | 287 kts | 107° |
| 2026-04-23 23:19 | 35.97432 | -86.63523 | 8837 ft | 294 kts | 87° |
| 2026-04-23 23:19 | 35.97627 | -86.60992 | 9678 ft | 299 kts | 86° |
| 2026-04-23 23:19 | 35.97820 | -86.58408 | 10415 ft | 306 kts | 87° |
| 2026-04-23 23:19 | 35.97987 | -86.55689 | 10698 ft | 330 kts | 87° |
| 2026-04-23 23:20 | 35.98128 | -86.52757 | 10904 ft | 354 kts | 88° |
| 2026-04-23 23:20 | 35.98244 | -86.49647 | 11307 ft | 369 kts | 88° |
| 2026-04-23 23:20 | 35.98338 | -86.46457 | 12002 ft | 374 kts | 88° |
| 2026-04-23 23:20 | 35.98414 | -86.43228 | 12686 ft | 379 kts | 88° |
| 2026-04-23 23:21 | 35.98478 | -86.39974 | 13523 ft | 379 kts | 88° |
| 2026-04-23 23:21 | 35.98534 | -86.36694 | 14190 ft | 383 kts | 88° |
| 2026-04-23 23:21 | 35.98584 | -86.33429 | 14802 ft | 388 kts | 88° |
| 2026-04-23 23:21 | 35.98638 | -86.30043 | 15430 ft | 392 kts | 88° |
| 2026-04-23 23:22 | 35.98698 | -86.26705 | 16032 ft | 396 kts | 88° |
| 2026-04-23 23:22 | 35.98758 | -86.23283 | 16655 ft | 400 kts | 88° |
| 2026-04-23 23:22 | 35.98814 | -86.19838 | 17247 ft | 405 kts | 88° |
| 2026-04-23 23:22 | 35.98866 | -86.16333 | 17844 ft | 409 kts | 88° |
| 2026-04-23 23:23 | 35.98913 | -86.12811 | 18406 ft | 413 kts | 88° |
| 2026-04-23 23:23 | 35.98958 | -86.09251 | 18919 ft | 416 kts | 88° |
| 2026-04-23 23:23 | 35.99001 | -86.05662 | 19410 ft | 420 kts | 88° |
| 2026-04-23 23:23 | 35.99042 | -86.02040 | 19916 ft | 424 kts | 88° |
| 2026-04-23 23:24 | 35.99083 | -85.98391 | 20413 ft | 427 kts | 88° |
| 2026-04-23 23:24 | 35.99123 | -85.94711 | 20910 ft | 430 kts | 88° |
| 2026-04-23 23:24 | 35.99162 | -85.91008 | 21391 ft | 433 kts | 88° |
| 2026-04-23 23:24 | 35.99200 | -85.87271 | 21865 ft | 436 kts | 88° |
| 2026-04-23 23:25 | 35.99238 | -85.83508 | 22320 ft | 439 kts | 88° |
| 2026-04-23 23:25 | 35.99274 | -85.79721 | 22761 ft | 443 kts | 88° |
| 2026-04-23 23:25 | 35.99310 | -85.75954 | 23181 ft | 446 kts | 88° |
| 2026-04-23 23:25 | 35.99345 | -85.72115 | 23588 ft | 449 kts | 88° |
| 2026-04-23 23:26 | 35.99378 | -85.68250 | 23954 ft | 452 kts | 88° |
| 2026-04-23 23:26 | 35.99411 | -85.64354 | 24325 ft | 453 kts | 88° |
| 2026-04-23 23:26 | 35.99443 | -85.60459 | 24700 ft | 455 kts | 88° |
| 2026-04-23 23:26 | 35.99474 | -85.56538 | 25058 ft | 457 kts | 88° |
| 2026-04-23 23:27 | 35.99504 | -85.52597 | 25411 ft | 460 kts | 88° |
| 2026-04-23 23:27 | 35.99532 | -85.48643 | 25758 ft | 462 kts | 88° |
| 2026-04-23 23:27 | 35.99559 | -85.44670 | 26095 ft | 464 kts | 88° |
| 2026-04-23 23:27 | 35.99585 | -85.40684 | 26424 ft | 466 kts | 88° |
| 2026-04-23 23:28 | 35.99610 | -85.36676 | 26750 ft | 468 kts | 88° |
| 2026-04-23 23:28 | 35.99634 | -85.32646 | 27066 ft | 470 kts | 88° |
| 2026-04-23 23:28 | 35.99657 | -85.28650 | 27414 ft | 472 kts | 88° |
| 2026-04-23 23:28 | 35.99678 | -85.24589 | 27721 ft | 474 kts | 88° |
| 2026-04-23 23:29 | 35.99699 | -85.20512 | 28018 ft | 476 kts | 88° |
| 2026-04-23 23:29 | 35.99719 | -85.16419 | 28306 ft | 478 kts | 88° |
| 2026-04-23 23:29 | 35.99736 | -85.12312 | 28584 ft | 479 kts | 88° |
| 2026-04-23 23:29 | 35.99492 | -85.08199 | 28834 ft | 484 kts | 100° |
| 2026-04-23 23:30 | 35.98481 | -85.04232 | 29127 ft | 486 kts | 113° |
| 2026-04-23 23:30 | 35.96801 | -85.00608 | 29518 ft | 487 kts | 127° |
| 2026-04-23 23:30 | 35.94593 | -84.97446 | 29955 ft | 485 kts | 132° |
| 2026-04-23 23:30 | 35.92311 | -84.94385 | 30341 ft | 484 kts | 133° |
| 2026-04-23 23:31 | 35.90020 | -84.91344 | 30639 ft | 484 kts | 133° |
| 2026-04-23 23:31 | 35.87762 | -84.88333 | 30906 ft | 484 kts | 132° |
| 2026-04-23 23:31 | 35.85491 | -84.85276 | 31252 ft | 483 kts | 132° |
| 2026-04-23 23:31 | 35.83236 | -84.82215 | 31606 ft | 481 kts | 132° |
| 2026-04-23 23:32 | 35.80995 | -84.79158 | 31954 ft | 480 kts | 132° |
| 2026-04-23 23:32 | 35.78760 | -84.76099 | 32257 ft | 480 kts | 132° |
| 2026-04-23 23:32 | 35.76530 | -84.73043 | 32552 ft | 480 kts | 132° |
| 2026-04-23 23:32 | 35.74301 | -84.69992 | 32863 ft | 479 kts | 132° |
| 2026-04-23 23:33 | 35.72072 | -84.66944 | 33199 ft | 478 kts | 132° |
| 2026-04-23 23:33 | 35.69848 | -84.63906 | 33500 ft | 477 kts | 132° |
| 2026-04-23 23:33 | 35.67624 | -84.60873 | 33779 ft | 477 kts | 132° |
| 2026-04-23 23:33 | 35.65404 | -84.57849 | 34072 ft | 476 kts | 132° |
| 2026-04-23 23:34 | 35.63182 | -84.54825 | 34361 ft | 476 kts | 132° |
| 2026-04-23 23:34 | 35.60990 | -84.51844 | 34595 ft | 475 kts | 132° |
| 2026-04-23 23:34 | 35.58744 | -84.48793 | 34817 ft | 475 kts | 132° |
| 2026-04-23 23:34 | 35.56553 | -84.45820 | 35052 ft | 475 kts | 132° |
| 2026-04-23 23:35 | 35.54338 | -84.42816 | 35305 ft | 474 kts | 132° |
| 2026-04-23 23:35 | 35.52121 | -84.39812 | 35559 ft | 474 kts | 132° |
| 2026-04-23 23:35 | 35.49910 | -84.36818 | 35781 ft | 474 kts | 132° |
| 2026-04-23 23:35 | 35.47693 | -84.33820 | 35991 ft | 474 kts | 133° |
| 2026-04-23 23:36 | 35.45481 | -84.30830 | 36215 ft | 473 kts | 133° |
| 2026-04-23 23:36 | 35.43271 | -84.27846 | 36450 ft | 472 kts | 133° |
| 2026-04-23 23:36 | 35.41065 | -84.24870 | 36680 ft | 472 kts | 133° |
| 2026-04-23 23:36 | 35.38855 | -84.21892 | 36872 ft | 472 kts | 133° |
| 2026-04-23 23:37 | 35.36646 | -84.18916 | 37031 ft | 473 kts | 133° |
| 2026-04-23 23:37 | 35.32200 | -84.12937 | 37051 ft | 475 kts | 133° |
| 2026-04-23 23:38 | 35.27796 | -84.07024 | 37057 ft | 471 kts | 133° |
| 2026-04-23 23:38 | 35.23393 | -84.01123 | 37070 ft | 468 kts | 133° |
| 2026-04-23 23:39 | 35.19002 | -83.95247 | 37077 ft | 467 kts | 133° |
| 2026-04-23 23:39 | 35.14623 | -83.89398 | 37070 ft | 466 kts | 133° |
| 2026-04-23 23:40 | 35.10242 | -83.83557 | 37067 ft | 466 kts | 133° |
| 2026-04-23 23:40 | 35.05844 | -83.77702 | 37077 ft | 467 kts | 133° |
| 2026-04-23 23:41 | 35.01465 | -83.71882 | 37063 ft | 469 kts | 133° |
| 2026-04-23 23:41 | 34.97043 | -83.66015 | 37057 ft | 471 kts | 133° |
| 2026-04-23 23:42 | 34.92593 | -83.60120 | 37060 ft | 473 kts | 133° |
| 2026-04-23 23:42 | 34.88130 | -83.54218 | 37047 ft | 474 kts | 133° |
| 2026-04-23 23:43 | 34.83652 | -83.48304 | 37050 ft | 475 kts | 133° |
| 2026-04-23 23:43 | 34.79174 | -83.42398 | 37050 ft | 475 kts | 133° |
| 2026-04-23 23:44 | 34.74725 | -83.36541 | 37055 ft | 474 kts | 133° |
| 2026-04-23 23:44 | 34.69847 | -83.31191 | 37056 ft | 473 kts | 150° |
| 2026-04-23 23:45 | 34.63765 | -83.28302 | 37066 ft | 470 kts | 171° |
| 2026-04-23 23:45 | 34.57333 | -83.26923 | 37063 ft | 469 kts | 172° |
| 2026-04-23 23:46 | 34.50888 | -83.25587 | 37062 ft | 469 kts | 171° |
| 2026-04-23 23:46 | 34.45548 | -83.24433 | 37053 ft | 469 kts | 171° |
| 2026-04-23 23:47 | 34.38088 | -83.22775 | 37047 ft | 469 kts | 171° |
| 2026-04-23 23:47 | 34.31669 | -83.21338 | 37034 ft | 469 kts | 171° |
| 2026-04-23 23:48 | 34.26290 | -83.20137 | 37031 ft | 469 kts | 171° |
| 2026-04-23 23:48 | 34.19917 | -83.18717 | 37036 ft | 469 kts | 171° |
| 2026-04-23 23:49 | 34.10274 | -83.16575 | 37038 ft | 469 kts | 171° |
| 2026-04-23 23:49 | 34.03844 | -83.15150 | 37038 ft | 470 kts | 171° |
| 2026-04-23 23:50 | 33.97394 | -83.13722 | 37042 ft | 471 kts | 171° |
| 2026-04-23 23:50 | 33.90937 | -83.12295 | 37039 ft | 472 kts | 171° |
| 2026-04-23 23:51 | 33.84486 | -83.10871 | 37033 ft | 470 kts | 171° |
| 2026-04-23 23:51 | 33.78105 | -83.09465 | 37033 ft | 469 kts | 171° |
| 2026-04-23 23:52 | 33.71693 | -83.08054 | 37036 ft | 467 kts | 171° |
| 2026-04-23 23:52 | 33.65305 | -83.06651 | 37031 ft | 467 kts | 171° |
| 2026-04-23 23:53 | 33.58909 | -83.05248 | 37035 ft | 467 kts | 171° |
| 2026-04-23 23:53 | 33.52515 | -83.03847 | 37029 ft | 467 kts | 171° |
| 2026-04-23 23:54 | 33.46150 | -83.02455 | 37021 ft | 468 kts | 171° |
| 2026-04-23 23:54 | 33.39742 | -83.01056 | 37031 ft | 468 kts | 171° |
| 2026-04-23 23:55 | 33.33328 | -82.99657 | 37027 ft | 469 kts | 171° |
| 2026-04-23 23:55 | 33.26902 | -82.98258 | 37039 ft | 469 kts | 171° |
| 2026-04-23 23:56 | 33.20471 | -82.96860 | 37027 ft | 469 kts | 171° |
| 2026-04-23 23:56 | 33.14048 | -82.95465 | 37025 ft | 469 kts | 171° |
| 2026-04-23 23:57 | 33.07672 | -82.94083 | 37023 ft | 469 kts | 171° |
| 2026-04-23 23:57 | 33.01254 | -82.92693 | 37024 ft | 469 kts | 171° |
| 2026-04-23 23:58 | 32.94831 | -82.91304 | 37025 ft | 469 kts | 171° |
| 2026-04-23 23:58 | 32.88411 | -82.89918 | 37021 ft | 468 kts | 171° |
| 2026-04-23 23:59 | 32.81996 | -82.88535 | 37032 ft | 468 kts | 171° |
| 2026-04-23 23:59 | 32.75584 | -82.87154 | 37038 ft | 468 kts | 171° |
| 2026-04-24 00:00 | 32.69177 | -82.85775 | 37038 ft | 468 kts | 171° |
| 2026-04-24 00:00 | 32.62814 | -82.84405 | 37045 ft | 468 kts | 171° |
| 2026-04-24 00:01 | 32.56404 | -82.83031 | 37050 ft | 468 kts | 171° |
| 2026-04-24 00:01 | 32.49994 | -82.81663 | 37035 ft | 468 kts | 171° |
| 2026-04-24 00:02 | 32.43579 | -82.80295 | 37040 ft | 468 kts | 171° |
| 2026-04-24 00:02 | 32.37161 | -82.78924 | 37042 ft | 469 kts | 171° |
| 2026-04-24 00:03 | 32.30742 | -82.77552 | 37043 ft | 469 kts | 171° |
| 2026-04-24 00:03 | 32.24318 | -82.76181 | 37035 ft | 468 kts | 171° |
| 2026-04-24 00:04 | 32.17909 | -82.74814 | 37037 ft | 468 kts | 170° |
| 2026-04-24 00:04 | 32.11544 | -82.73460 | 37043 ft | 468 kts | 170° |
| 2026-04-24 00:05 | 32.05125 | -82.72095 | 37045 ft | 469 kts | 170° |
| 2026-04-24 00:05 | 31.98706 | -82.70733 | 37045 ft | 469 kts | 170° |
| 2026-04-24 00:06 | 31.92270 | -82.69368 | 37047 ft | 470 kts | 170° |
| 2026-04-24 00:06 | 31.85839 | -82.68007 | 37046 ft | 470 kts | 170° |
| 2026-04-24 00:07 | 31.79404 | -82.66647 | 37048 ft | 469 kts | 170° |
| 2026-04-24 00:07 | 31.72975 | -82.65289 | 37043 ft | 469 kts | 170° |
| 2026-04-24 00:08 | 31.66558 | -82.63936 | 37041 ft | 468 kts | 170° |
| 2026-04-24 00:08 | 31.60151 | -82.62587 | 37043 ft | 468 kts | 170° |
| 2026-04-24 00:09 | 31.53751 | -82.61241 | 37044 ft | 467 kts | 170° |
| 2026-04-24 00:09 | 31.47404 | -82.59907 | 37044 ft | 466 kts | 170° |
| 2026-04-24 00:10 | 31.41017 | -82.58566 | 37046 ft | 466 kts | 170° |
| 2026-04-24 00:10 | 31.34637 | -82.57226 | 37047 ft | 465 kts | 170° |
| 2026-04-24 00:11 | 31.28276 | -82.55859 | 37051 ft | 465 kts | 167° |
| 2026-04-24 00:11 | 31.22256 | -82.53153 | 37063 ft | 464 kts | 154° |
| 2026-04-24 00:12 | 31.16466 | -82.49783 | 37057 ft | 465 kts | 154° |
| 2026-04-24 00:12 | 31.10671 | -82.46424 | 37058 ft | 465 kts | 154° |
| 2026-04-24 00:13 | 31.04857 | -82.43111 | 37055 ft | 465 kts | 154° |
| 2026-04-24 00:13 | 30.99075 | -82.39840 | 37059 ft | 466 kts | 155° |
| 2026-04-24 00:14 | 30.93236 | -82.36543 | 37066 ft | 467 kts | 155° |
| 2026-04-24 00:14 | 30.87396 | -82.33247 | 37068 ft | 468 kts | 155° |
| 2026-04-24 00:15 | 30.81519 | -82.29933 | 37065 ft | 468 kts | 155° |
| 2026-04-24 00:15 | 30.75643 | -82.26623 | 37084 ft | 469 kts | 155° |
| 2026-04-24 00:16 | 30.69811 | -82.23339 | 37085 ft | 469 kts | 155° |
| 2026-04-24 00:16 | 30.63830 | -82.20379 | 37071 ft | 466 kts | 169° |
| 2026-04-24 00:17 | 30.60620 | -82.20083 | 37090 ft | 463 kts | 185° |
| 2026-04-24 00:17 | 30.57422 | -82.20419 | 37098 ft | 462 kts | 187° |
| 2026-04-24 00:17 | 30.51031 | -82.21268 | 37090 ft | 462 kts | 188° |
| 2026-04-24 00:18 | 30.44642 | -82.22067 | 37095 ft | 462 kts | 187° |
| 2026-04-24 00:18 | 30.38253 | -82.22797 | 37099 ft | 461 kts | 187° |
| 2026-04-24 00:19 | 30.31863 | -82.23509 | 37092 ft | 461 kts | 187° |
| 2026-04-24 00:19 | 30.25527 | -82.24215 | 37088 ft | 460 kts | 187° |
| 2026-04-24 00:20 | 30.19152 | -82.24927 | 37085 ft | 460 kts | 187° |
| 2026-04-24 00:20 | 30.12751 | -82.25163 | 37098 ft | 462 kts | 176° |
| 2026-04-24 00:21 | 30.06363 | -82.24276 | 37088 ft | 463 kts | 174° |
| 2026-04-24 00:21 | 29.99969 | -82.23315 | 37089 ft | 463 kts | 174° |
| 2026-04-24 00:22 | 29.93570 | -82.22444 | 37082 ft | 462 kts | 175° |
| 2026-04-24 00:22 | 29.87208 | -82.21624 | 37080 ft | 459 kts | 175° |
| 2026-04-24 00:23 | 29.80909 | -82.20819 | 36922 ft | 459 kts | 175° |
| 2026-04-24 00:23 | 29.77719 | -82.20410 | 36399 ft | 461 kts | 175° |
| 2026-04-24 00:23 | 29.74540 | -82.20001 | 35772 ft | 459 kts | 175° |
| 2026-04-24 00:24 | 29.71362 | -82.19591 | 35114 ft | 460 kts | 176° |
| 2026-04-24 00:24 | 29.68179 | -82.19181 | 34444 ft | 461 kts | 176° |
| 2026-04-24 00:24 | 29.64986 | -82.18769 | 33672 ft | 462 kts | 177° |
| 2026-04-24 00:24 | 29.61787 | -82.18359 | 32891 ft | 463 kts | 177° |
| 2026-04-24 00:25 | 29.58582 | -82.17949 | 32140 ft | 463 kts | 176° |
| 2026-04-24 00:25 | 29.55393 | -82.17545 | 31564 ft | 459 kts | 176° |
| 2026-04-24 00:25 | 29.52205 | -82.17146 | 30809 ft | 460 kts | 176° |
| 2026-04-24 00:25 | 29.49066 | -82.16754 | 30015 ft | 461 kts | 176° |
| 2026-04-24 00:26 | 29.45875 | -82.16354 | 29180 ft | 461 kts | 176° |
| 2026-04-24 00:26 | 29.42710 | -82.15955 | 28555 ft | 455 kts | 176° |
| 2026-04-24 00:26 | 29.39578 | -82.15559 | 27949 ft | 450 kts | 176° |
| 2026-04-24 00:26 | 29.36478 | -82.15168 | 27337 ft | 446 kts | 176° |
| 2026-04-24 00:27 | 29.33411 | -82.14782 | 26742 ft | 441 kts | 176° |
| 2026-04-24 00:27 | 29.30373 | -82.14399 | 26155 ft | 438 kts | 176° |
| 2026-04-24 00:27 | 29.27358 | -82.14020 | 25578 ft | 434 kts | 176° |
| 2026-04-24 00:27 | 29.24367 | -82.13643 | 24993 ft | 431 kts | 176° |
| 2026-04-24 00:28 | 29.21386 | -82.13269 | 24404 ft | 429 kts | 176° |
| 2026-04-24 00:28 | 29.18425 | -82.12898 | 23823 ft | 427 kts | 176° |
| 2026-04-24 00:28 | 29.15467 | -82.12592 | 23037 ft | 427 kts | 179° |
| 2026-04-24 00:28 | 29.12508 | -82.12481 | 22351 ft | 424 kts | 181° |
| 2026-04-24 00:29 | 29.09565 | -82.12454 | 21727 ft | 420 kts | 182° |
| 2026-04-24 00:29 | 29.06664 | -82.12444 | 21140 ft | 416 kts | 182° |
| 2026-04-24 00:29 | 29.03773 | -82.12424 | 20567 ft | 412 kts | 181° |
| 2026-04-24 00:29 | 29.00956 | -82.12391 | 20012 ft | 409 kts | 181° |
| 2026-04-24 00:30 | 28.98128 | -82.12344 | 19452 ft | 406 kts | 181° |
| 2026-04-24 00:30 | 28.95304 | -82.12289 | 18889 ft | 403 kts | 181° |
| 2026-04-24 00:30 | 28.92506 | -82.12232 | 18318 ft | 401 kts | 181° |
| 2026-04-24 00:30 | 28.89727 | -82.12172 | 17685 ft | 398 kts | 181° |
| 2026-04-24 00:31 | 28.86958 | -82.12113 | 17071 ft | 396 kts | 181° |
| 2026-04-24 00:31 | 28.84215 | -82.12054 | 16499 ft | 392 kts | 181° |
| 2026-04-24 00:31 | 28.81497 | -82.11997 | 15942 ft | 389 kts | 181° |
| 2026-04-24 00:31 | 28.78800 | -82.11939 | 15397 ft | 386 kts | 181° |
| 2026-04-24 00:32 | 28.76128 | -82.11882 | 14866 ft | 383 kts | 181° |
| 2026-04-24 00:32 | 28.73474 | -82.11826 | 14328 ft | 382 kts | 181° |
| 2026-04-24 00:32 | 28.70810 | -82.11771 | 13761 ft | 383 kts | 181° |
| 2026-04-24 00:32 | 28.68141 | -82.11715 | 13171 ft | 383 kts | 180° |
| 2026-04-24 00:33 | 28.65468 | -82.11508 | 12583 ft | 385 kts | 175° |
| 2026-04-24 00:33 | 28.62821 | -82.11116 | 12027 ft | 383 kts | 173° |
| 2026-04-24 00:33 | 28.60188 | -82.10680 | 11477 ft | 382 kts | 173° |
| 2026-04-24 00:33 | 28.57571 | -82.10256 | 10950 ft | 377 kts | 173° |
| 2026-04-24 00:34 | 28.55042 | -82.09870 | 10779 ft | 355 kts | 174° |
| 2026-04-24 00:34 | 28.52671 | -82.09525 | 10615 ft | 332 kts | 174° |
| 2026-04-24 00:34 | 28.50471 | -82.09212 | 10478 ft | 313 kts | 175° |
| 2026-04-24 00:34 | 28.48353 | -82.08911 | 10352 ft | 301 kts | 175° |
| 2026-04-24 00:35 | 28.46305 | -82.08608 | 10237 ft | 295 kts | 174° |
| 2026-04-24 00:35 | 28.44282 | -82.08302 | 10198 ft | 291 kts | 174° |
| 2026-04-24 00:35 | 28.42256 | -82.07997 | 10024 ft | 296 kts | 174° |
| 2026-04-24 00:35 | 28.40202 | -82.07689 | 9705 ft | 300 kts | 174° |
| 2026-04-24 00:36 | 28.38155 | -82.07378 | 9379 ft | 298 kts | 174° |
| 2026-04-24 00:36 | 28.36111 | -82.07067 | 9060 ft | 295 kts | 174° |
| 2026-04-24 00:36 | 28.34094 | -82.06758 | 8756 ft | 292 kts | 174° |
| 2026-04-24 00:36 | 28.32106 | -82.06449 | 8436 ft | 283 kts | 173° |
| 2026-04-24 00:37 | 28.30186 | -82.06152 | 8150 ft | 274 kts | 174° |
| 2026-04-24 00:37 | 28.28318 | -82.05866 | 7881 ft | 267 kts | 174° |
| 2026-04-24 00:37 | 28.26474 | -82.05586 | 7619 ft | 269 kts | 174° |
| 2026-04-24 00:37 | 28.24611 | -82.05304 | 7342 ft | 272 kts | 174° |
| 2026-04-24 00:38 | 28.22733 | -82.05019 | 7051 ft | 272 kts | 173° |
| 2026-04-24 00:38 | 28.20872 | -82.04727 | 6803 ft | 269 kts | 173° |
| 2026-04-24 00:38 | 28.19024 | -82.04690 | 6577 ft | 264 kts | 194° |
| 2026-04-24 00:38 | 28.17394 | -82.05586 | 6360 ft | 261 kts | 218° |
| 2026-04-24 00:39 | 28.16036 | -82.06931 | 6095 ft | 259 kts | 223° |
| 2026-04-24 00:39 | 28.14728 | -82.08329 | 5815 ft | 256 kts | 223° |
| 2026-04-24 00:39 | 28.13441 | -82.09726 | 5547 ft | 256 kts | 223° |
| 2026-04-24 00:39 | 28.12192 | -82.11096 | 5295 ft | 251 kts | 225° |
| 2026-04-24 00:40 | 28.11299 | -82.12777 | 5009 ft | 253 kts | 253° |
| 2026-04-24 00:40 | 28.11018 | -82.14758 | 4780 ft | 258 kts | 262° |
| 2026-04-24 00:40 | 28.10840 | -82.16793 | 4547 ft | 261 kts | 263° |
| 2026-04-24 00:40 | 28.10675 | -82.18856 | 4383 ft | 265 kts | 263° |
| 2026-04-24 00:41 | 28.10513 | -82.20931 | 4247 ft | 264 kts | 262° |
| 2026-04-24 00:41 | 28.09919 | -82.22857 | 4138 ft | 259 kts | 233° |
| 2026-04-24 00:41 | 28.09096 | -82.23861 | 3952 ft | 258 kts | 215° |
| 2026-04-24 00:41 | 28.06952 | -82.24907 | 3534 ft | 252 kts | 195° |
| 2026-04-24 00:42 | 28.05848 | -82.25276 | 3328 ft | 252 kts | 194° |
| 2026-04-24 00:42 | 28.04193 | -82.25817 | 3059 ft | 250 kts | 194° |
| 2026-04-24 00:42 | 28.02482 | -82.26331 | 3011 ft | 250 kts | 186° |
| 2026-04-24 00:42 | 28.00843 | -82.26037 | 2992 ft | 242 kts | 150° |
| 2026-04-24 00:43 | 27.99737 | -82.24717 | 2991 ft | 229 kts | 115° |
| 2026-04-24 00:43 | 27.99253 | -82.23051 | 2990 ft | 216 kts | 104° |
| 2026-04-24 00:43 | 27.99033 | -82.21444 | 2979 ft | 197 kts | 97° |
| 2026-04-24 00:43 | 27.98942 | -82.19963 | 2980 ft | 184 kts | 95° |
| 2026-04-24 00:44 | 27.98912 | -82.18499 | 2762 ft | 184 kts | 92° |
| 2026-04-24 00:44 | 27.98905 | -82.17087 | 2521 ft | 175 kts | 92° |
| 2026-04-24 00:44 | 27.98905 | -82.15752 | 2294 ft | 166 kts | 92° |
| 2026-04-24 00:44 | 27.98906 | -82.14488 | 2081 ft | 154 kts | 92° |
| 2026-04-24 00:45 | 27.98907 | -82.13329 | 1901 ft | 145 kts | 92° |
| 2026-04-24 00:45 | 27.98908 | -82.12205 | 1706 ft | 140 kts | 92° |
| 2026-04-24 00:45 | 27.98909 | -82.11110 | 1525 ft | 138 kts | 92° |
| 2026-04-24 00:45 | 27.98911 | -82.10033 | 1326 ft | 138 kts | 92° |
| 2026-04-24 00:46 | 27.98912 | -82.08949 | 1172 ft | 137 kts | 93° |
| 2026-04-24 00:46 | 27.98907 | -82.07864 | 946 ft | 141 kts | 92° |
| 2026-04-24 00:46 | 27.98899 | -82.06774 | 767 ft | 137 kts | 90° |
| 2026-04-24 00:46 | 27.98923 | -82.05697 | 629 ft | 142 kts | 89° |
| 2026-04-24 00:47 | 27.98923 | -82.04558 | 417 ft | 143 kts | 90° |
| 2026-04-24 00:47 | 27.98938 | -82.03468 | 189 ft | 134 kts | 94° |
| 2026-04-24 00:47 | 27.98922 | -82.02506 | 148 ft | 109 kts | 89° |
| 2026-04-24 00:47 | 27.98929 | -82.01818 | 149 ft | 66 kts | 90° |
| 2026-04-24 00:48 | 27.98958 | -82.01521 | 147 ft | 20 kts | 62° |
| 2026-04-24 00:48 | 27.99023 | -82.01474 | 148 ft | 2 kts | 347° |
| 2026-04-24 00:48 | 27.99030 | -82.01499 | 147 ft | 5 kts | 285° |
| 2026-04-24 00:48 | 27.99038 | -82.01551 | 147 ft | 10 kts | 274° |
| 2026-04-24 00:49 | 27.99038 | -82.01661 | 147 ft | 18 kts | 265° |
| 2026-04-24 00:49 | 27.99039 | -82.01832 | 148 ft | 25 kts | 272° |
| 2026-04-24 00:49 | 27.99038 | -82.02030 | 147 ft | 24 kts | 268° |
| 2026-04-24 00:49 | 27.99038 | -82.02215 | 148 ft | 23 kts | 270° |
| 2026-04-24 00:50 | 27.99035 | -82.02385 | 148 ft | 22 kts | 269° |
| 2026-04-24 00:50 | 27.99034 | -82.02579 | 148 ft | 25 kts | 270° |
| 2026-04-24 00:50 | 27.99036 | -82.02767 | 148 ft | 23 kts | 268° |
| 2026-04-24 00:50 | 27.99040 | -82.02945 | 148 ft | 22 kts | 269° |
| 2026-04-24 00:51 | 27.99038 | -82.03119 | 147 ft | 22 kts | 270° |
| 2026-04-24 00:51 | 27.99043 | -82.03234 | 147 ft | 5 kts | 323° |
| 2026-04-24 00:51 | 27.99094 | -82.03242 | 147 ft | 10 kts | 348° |
| 2026-04-24 00:51 | 27.99153 | -82.03277 | 147 ft | 10 kts | 1° |
| 2026-04-24 00:52 | 27.99186 | -82.03277 | 147 ft | 0 kts | 359° |